Gordonsville, Tennessee
Current Conditions -  °F | °C
As of 5:55 PM on Sunday 23 Nov 2014 (Local Time) from KSRB Reporting Station
Overcast Overcast  
Wind Chill: 57°   Ceiling: 2000
Heat Index: 57°   Visibility: 10mi
Dew Point: 55°   Wind: 14mph
Humidity: 94%   Direction: 190°S
Pressure: 29.48"   Gusts: NA
Location:  36.17°N, 85.93°W
Report Text: KSRB 232355Z AUTO 19012KT 10SM BKN020 BKN030 OVC050 14/13 A2948 RMK
Loading
Personal Weather Stations






























Interactive Weather Map New forecast layout! Learn more

10-Day Weather Forecast

Advertisements
Track Severe Weather on mobile